Terminal Aerodrome Forecast
Issued by NWS Grand Forks, ND

Home | Current Version | Previous Version | Graphics & Text | Print | Product List | Glossary On
Versions: 1 2 3 4 5 6 7 8 9 10 11 12 13 14 15
000
FTUS43 KFGF 232320
TAFFAR
TAF
KFAR 232320Z 2400/2424 19020G27KT P6SM FEW100
     FM240100 22012KT P6SM VCTS BKN060CB
     FM240200 21007KT P6SM BKN060
     FM240400 22006KT P6SM SCT070
     FM240900 27006KT P6SM FEW250
     FM241700 28015G25KT P6SM FEW060=

USA.gov is the U.S. government's official web portal to all federal, state and local government web resources and services.